Cfl Racer — PJMV — position and weather

sailwx.info

Track history (hours):
 
Tides and Currents Weather Stations Pressure Air Temp Water Temp Dewpoint Dewpoint Depression Visibility Wind Speed Wind Dir Waves Ship Positions

Cfl Racer

Last reported at 2014-Aug-23 03:31 UTC. Time now 2014-Aug-23 19:50 UTC.
Position N 51°11' E 003°48'.

Length 83 m; draft 3.1 m.

Type: Cargo ship. MMSI: 306762000.

Date/timePositionNaut miles runAvg speedWind from/ knotsBaromVisibWave heightAir tempDewpointWater temp
2014-Aug-23 03:31N 51°11' E 003°48'0 0.0
2014-Aug-23 02:31N 51°11' E 003°48'0 0.0
2014-Aug-23 01:31N 51°11' E 003°48'0 0.0
2014-Aug-23 00:31N 51°11' E 003°48'0 0.0
2014-Aug-22 23:25N 51°11' E 003°48'0 0.0
2014-Aug-22 22:31N 51°11' E 003°48'0 0.0
2014-Aug-22 21:31N 51°11' E 003°48'0 0.0
2014-Aug-22 20:28N 51°11' E 003°48'0 0.0
2014-Aug-22 19:28N 51°11' E 003°48'0 0.0
2014-Aug-22 18:31N 51°11' E 003°48'0 0.0
2014-Aug-22 17:31N 51°11' E 003°48'0 0.0
2014-Aug-22 16:31N 51°11' E 003°48'0 0.0
2014-Aug-22 15:31N 51°11' E 003°48'0 0.0
2014-Aug-22 14:31N 51°11' E 003°48'0 0.0
2014-Aug-22 13:31N 51°11' E 003°48'0 0.0
2014-Aug-22 12:31N 51°11' E 003°48'0 0.0
2014-Aug-22 11:31N 51°11' E 003°48'0 0.0
2014-Aug-22 10:31N 51°11' E 003°48'1 0.7
2014-Aug-22 09:33N 51°10' E 003°48'1 0.8
2014-Aug-22 08:30N 51°09' E 003°47'0 0.0
2014-Aug-22 07:33N 51°09' E 003°47'0 0.0
2014-Aug-22 06:24N 51°09' E 003°47'0 0.0
2014-Aug-22 05:33N 51°09' E 003°47'0 0.0
2014-Aug-22 04:33N 51°09' E 003°47'0 0.0
2014-Aug-22 03:30N 51°09' E 003°47'0 0.0
2014-Aug-22 02:15N 51°09' E 003°47'0 0.0
2014-Aug-22 01:33N 51°09' E 003°47'0 0.0
2014-Aug-22 00:30N 51°09' E 003°47'0 0.0
2014-Aug-21 23:33N 51°09' E 003°47'0 0.0
2014-Aug-21 22:33N 51°09' E 003°47'0 0.0
2014-Aug-21 21:30N 51°09' E 003°47'0 0.0
2014-Aug-21 20:30N 51°09' E 003°47'0 0.0
2014-Aug-21 19:33N 51°09' E 003°47'0 0.0
2014-Aug-21 18:33N 51°09' E 003°47'0 0.0
2014-Aug-21 17:24N 51°09' E 003°47'0 0.0
2014-Aug-21 16:30N 51°09' E 003°47'0 0.0
2014-Aug-21 15:18N 51°09' E 003°47'0 0.0
2014-Aug-21 14:30N 51°09' E 003°47'0 0.0
2014-Aug-21 13:30N 51°09' E 003°47'0 0.0
2014-Aug-21 12:33N 51°09' E 003°47'0 0.0
2014-Aug-21 11:30N 51°09' E 003°47'0 0.0
2014-Aug-21 10:27N 51°09' E 003°47'0 0.0
2014-Aug-21 09:30N 51°09' E 003°47'0 0.0
2014-Aug-21 08:33N 51°09' E 003°47'0 0.0
2014-Aug-21 07:11N 51°09' E 003°47'0 0.0
2014-Aug-21 06:11N 51°09' E 003°47'0 0.0
2014-Aug-21 05:21N 51°09' E 003°47'0 0.0
2014-Aug-21 03:15N 51°09' E 003°47'0 0.0
2014-Aug-20 23:27N 51°09' E 003°47'0 0.0
2014-Aug-20 17:30N 51°09' E 003°47'0 0.0
2014-Aug-20 16:24N 51°09' E 003°47'0 0.0
2014-Aug-20 14:17N 51°09' E 003°47'0 0.0
2014-Aug-20 13:23N 51°09' E 003°47'0 0.0
2014-Aug-20 12:29N 51°09' E 003°47'0 0.0
2014-Aug-20 11:32N 51°09' E 003°47'0 0.0
2014-Aug-20 10:30N 51°09' E 003°47'0 0.0
2014-Aug-20 09:33N 51°09' E 003°47'0 0.0
2014-Aug-20 08:23N 51°09' E 003°47'0 0.0
2014-Aug-20 07:26N 51°09' E 003°47'0 0.0
2014-Aug-20 06:29N 51°09' E 003°47'0 0.0
2014-Aug-20 05:32N 51°09' E 003°47'0 0.0
2014-Aug-20 04:29N 51°09' E 003°47'0 0.0
2014-Aug-20 03:32N 51°09' E 003°47'0 0.0
2014-Aug-20 02:32N 51°09' E 003°47'0 0.0
2014-Aug-20 01:32N 51°09' E 003°47'0 0.0
2014-Aug-20 00:29N 51°09' E 003°47'0 0.0
2014-Aug-19 23:29N 51°09' E 003°47'0 0.0
2014-Aug-19 22:23N 51°09' E 003°47'0 0.0
2014-Aug-19 21:29N 51°09' E 003°47'0 0.0
2014-Aug-19 20:29N 51°09' E 003°47'6 6.3
2014-Aug-19 19:34N 51°15' E 003°49'5 5.1
2014-Aug-19 18:33N 51°20' E 003°49'1111.1
2014-Aug-19 17:33N 51°26' E 003°34'1412.4
2014-Aug-19 16:24N 51°38' E 003°20'6511.1
2014-Aug-19 10:33N 52°20' E 002°00'8 8.1
2014-Aug-19 09:33N 52°25' E 001°50'8 7.5
2014-Aug-19 08:33N 52°32' E 001°52'7 7.5
2014-Aug-19 07:33N 52°40' E 001°50'8 8.5
2014-Aug-19 06:33N 52°47' E 001°43'9 9.3
2014-Aug-19 05:33N 52°54' E 001°33'10 9.6
2014-Aug-19 04:33N 52°59' E 001°19'  
2014-Aug-16 12:25N 53°02' E 001°08'7 8.3
2014-Aug-16 11:33N 52°59' E 001°19'7 7.4
2014-Aug-16 10:33N 52°55' E 001°30'8 7.5
2014-Aug-16 09:33N 52°50' E 001°38'9 9.2
2014-Aug-16 08:33N 52°43' E 001°48'1211.8
2014-Aug-16 07:33N 52°31' E 001°53'1312.9
2014-Aug-16 06:33N 52°18' E 001°51'1312.8
2014-Aug-16 05:33N 52°06' E 001°51'1212.5
2014-Aug-16 04:33N 51°53' E 001°49'1111.4
2014-Aug-16 03:33N 51°42' E 001°50'1110.8
2014-Aug-16 02:33N 51°31' E 001°47'1110.7
2014-Aug-16 01:33N 51°21' E 001°42'10 9.9
2014-Aug-16 00:34N 51°11' E 001°37'9 8.7
2014-Aug-15 23:33N 51°06' E 001°26'20 9.8
2014-Aug-15 21:33N 50°53' E 001°02'1010.2
2014-Aug-15 20:33N 50°48' E 000°49'1110.6
2014-Aug-15 19:33N 50°42' E 000°35'1010.2
2014-Aug-15 18:33N 50°41' E 000°19'21 9.6
2014-Aug-15 16:24N 50°47' W 000°12'3 3.7
2014-Aug-15 15:33N 50°50' W 000°14'1 1.2
2014-Aug-15 14:33N 50°50' W 000°12'0 0.0
2014-Aug-15 13:33N 50°50' W 000°12'0 0.0
2014-Aug-15 12:33N 50°50' W 000°12'0 0.0
2014-Aug-15 11:33N 50°50' W 000°12'0 0.0
2014-Aug-15 10:33N 50°50' W 000°12'0 0.0
2014-Aug-15 09:33N 50°50' W 000°12'0 0.0
2014-Aug-15 08:33N 50°50' W 000°12'0 0.0
2014-Aug-15 07:33N 50°50' W 000°12'0 0.0
2014-Aug-15 06:33N 50°50' W 000°12'0 0.0
2014-Aug-15 05:33N 50°50' W 000°12'0 0.0
2014-Aug-15 04:33N 50°50' W 000°12'0 0.0
2014-Aug-15 03:33N 50°50' W 000°12'0 0.0
2014-Aug-15 02:33N 50°50' W 000°12'0 0.0
2014-Aug-15 01:33N 50°50' W 000°12'0 0.0
2014-Aug-15 00:33N 50°50' W 000°12'0 0.0
2014-Aug-14 23:33N 50°50' W 000°12'0 0.0
2014-Aug-14 22:33N 50°50' W 000°12'0 0.0
2014-Aug-14 21:33N 50°50' W 000°12'0 0.0
2014-Aug-14 20:33N 50°50' W 000°12'0 0.0
2014-Aug-14 19:33N 50°50' W 000°12'0 0.0
2014-Aug-14 18:33N 50°50' W 000°12'0 0.0
2014-Aug-14 17:33N 50°50' W 000°12'0 0.0
2014-Aug-14 16:30N 50°50' W 000°12'0 0.0
2014-Aug-14 15:33N 50°50' W 000°12'0 0.0
2014-Aug-14 14:33N 50°50' W 000°12'0 0.0
2014-Aug-14 13:33N 50°50' W 000°12'0 0.0
2014-Aug-14 12:33N 50°50' W 000°12'0 0.0
2014-Aug-14 11:33N 50°50' W 000°12'0 0.0
2014-Aug-14 10:33N 50°50' W 000°12'0 0.0
2014-Aug-14 09:33N 50°50' W 000°12'0 0.0
2014-Aug-14 08:30N 50°50' W 000°12'0 0.0
2014-Aug-14 07:33N 50°50' W 000°12'0 0.0
2014-Aug-14 06:33N 50°50' W 000°12'0 0.0
2014-Aug-14 05:33N 50°50' W 000°12'0 0.0
2014-Aug-14 04:33N 50°50' W 000°12'0 0.0
2014-Aug-14 03:33N 50°50' W 000°12'0 0.0
2014-Aug-14 02:33N 50°50' W 000°12'0 0.0
2014-Aug-14 01:33N 50°50' W 000°12'0 0.0
2014-Aug-14 00:33N 50°50' W 000°12'0 0.0
2014-Aug-13 23:33N 50°50' W 000°12'0 0.0
2014-Aug-13 22:33N 50°50' W 000°12'0 0.0
2014-Aug-13 21:33N 50°50' W 000°12'0 0.0
2014-Aug-13 20:33N 50°50' W 000°12'0 0.0
2014-Aug-13 19:33N 50°50' W 000°12'0 0.0
2014-Aug-13 18:33N 50°50' W 000°12'0 0.0
2014-Aug-13 17:30N 50°50' W 000°12'0 0.0
2014-Aug-13 16:33N 50°50' W 000°12'0 0.0
2014-Aug-13 15:33N 50°50' W 000°12'0 0.0
2014-Aug-13 14:33N 50°50' W 000°12'0 0.0
2014-Aug-13 13:33N 50°50' W 000°12'0 0.0
2014-Aug-13 12:33N 50°50' W 000°12'0 0.0
2014-Aug-13 11:30N 50°50' W 000°12'0 0.0
2014-Aug-13 10:33N 50°50' W 000°12'0 0.0
2014-Aug-13 09:33N 50°50' W 000°12'0 0.0
2014-Aug-13 08:33N 50°50' W 000°12'0 0.0
2014-Aug-13 07:33N 50°50' W 000°12'0 0.0
2014-Aug-13 06:30N 50°50' W 000°12'0 0.0
2014-Aug-13 05:33N 50°50' W 000°12'0 0.0
2014-Aug-13 04:33N 50°50' W 000°12'0 0.0
2014-Aug-13 03:33N 50°50' W 000°12'  
Track history (hours):
 
Tides and Currents Weather Stations Pressure Air Temp Water Temp Dewpoint Dewpoint Depression Visibility Wind Speed Wind Dir Waves Ship Positions

Cfl Racer

Last reported at 2014-Aug-23 03:31 UTC. Time now 2014-Aug-23 19:50 UTC.
Position N 51°11' E 003°48'.

Length 83 m; draft 3.1 m.

Type: Cargo ship. MMSI: 306762000.

Date/timePositionNaut miles runAvg speedWind from/ knotsBaromVisibWave heightAir tempDewpointWater temp
2014-Aug-23 03:31N 51°11' E 003°48'0 0.0
2014-Aug-23 02:31N 51°11' E 003°48'0 0.0
2014-Aug-23 01:31N 51°11' E 003°48'0 0.0
2014-Aug-23 00:31N 51°11' E 003°48'0 0.0
2014-Aug-22 23:25N 51°11' E 003°48'0 0.0
2014-Aug-22 22:31N 51°11' E 003°48'0 0.0
2014-Aug-22 21:31N 51°11' E 003°48'0 0.0
2014-Aug-22 20:28N 51°11' E 003°48'0 0.0
2014-Aug-22 19:28N 51°11' E 003°48'0 0.0
2014-Aug-22 18:31N 51°11' E 003°48'0 0.0
2014-Aug-22 17:31N 51°11' E 003°48'0 0.0
2014-Aug-22 16:31N 51°11' E 003°48'0 0.0
2014-Aug-22 15:31N 51°11' E 003°48'0 0.0
2014-Aug-22 14:31N 51°11' E 003°48'0 0.0
2014-Aug-22 13:31N 51°11' E 003°48'0 0.0
2014-Aug-22 12:31N 51°11' E 003°48'0 0.0
2014-Aug-22 11:31N 51°11' E 003°48'0 0.0
2014-Aug-22 10:31N 51°11' E 003°48'1 0.7
2014-Aug-22 09:33N 51°10' E 003°48'1 0.8
2014-Aug-22 08:30N 51°09' E 003°47'0 0.0
2014-Aug-22 07:33N 51°09' E 003°47'0 0.0
2014-Aug-22 06:24N 51°09' E 003°47'0 0.0
2014-Aug-22 05:33N 51°09' E 003°47'0 0.0
2014-Aug-22 04:33N 51°09' E 003°47'0 0.0
2014-Aug-22 03:30N 51°09' E 003°47'0 0.0
2014-Aug-22 02:15N 51°09' E 003°47'0 0.0
2014-Aug-22 01:33N 51°09' E 003°47'0 0.0
2014-Aug-22 00:30N 51°09' E 003°47'0 0.0
2014-Aug-21 23:33N 51°09' E 003°47'0 0.0
2014-Aug-21 22:33N 51°09' E 003°47'0 0.0
2014-Aug-21 21:30N 51°09' E 003°47'0 0.0
2014-Aug-21 20:30N 51°09' E 003°47'0 0.0
2014-Aug-21 19:33N 51°09' E 003°47'0 0.0
2014-Aug-21 18:33N 51°09' E 003°47'0 0.0
2014-Aug-21 17:24N 51°09' E 003°47'0 0.0
2014-Aug-21 16:30N 51°09' E 003°47'0 0.0
2014-Aug-21 15:18N 51°09' E 003°47'0 0.0
2014-Aug-21 14:30N 51°09' E 003°47'0 0.0
2014-Aug-21 13:30N 51°09' E 003°47'0 0.0
2014-Aug-21 12:33N 51°09' E 003°47'0 0.0
2014-Aug-21 11:30N 51°09' E 003°47'0 0.0
2014-Aug-21 10:27N 51°09' E 003°47'0 0.0
2014-Aug-21 09:30N 51°09' E 003°47'0 0.0
2014-Aug-21 08:33N 51°09' E 003°47'0 0.0
2014-Aug-21 07:11N 51°09' E 003°47'0 0.0
2014-Aug-21 06:11N 51°09' E 003°47'0 0.0
2014-Aug-21 05:21N 51°09' E 003°47'0 0.0
2014-Aug-21 03:15N 51°09' E 003°47'0 0.0
2014-Aug-20 23:27N 51°09' E 003°47'0 0.0
2014-Aug-20 17:30N 51°09' E 003°47'0 0.0
2014-Aug-20 16:24N 51°09' E 003°47'0 0.0
2014-Aug-20 14:17N 51°09' E 003°47'0 0.0
2014-Aug-20 13:23N 51°09' E 003°47'0 0.0
2014-Aug-20 12:29N 51°09' E 003°47'0 0.0
2014-Aug-20 11:32N 51°09' E 003°47'0 0.0
2014-Aug-20 10:30N 51°09' E 003°47'0 0.0
2014-Aug-20 09:33N 51°09' E 003°47'0 0.0
2014-Aug-20 08:23N 51°09' E 003°47'0 0.0
2014-Aug-20 07:26N 51°09' E 003°47'0 0.0
2014-Aug-20 06:29N 51°09' E 003°47'0 0.0
2014-Aug-20 05:32N 51°09' E 003°47'0 0.0
2014-Aug-20 04:29N 51°09' E 003°47'0 0.0
2014-Aug-20 03:32N 51°09' E 003°47'0 0.0
2014-Aug-20 02:32N 51°09' E 003°47'0 0.0
2014-Aug-20 01:32N 51°09' E 003°47'0 0.0
2014-Aug-20 00:29N 51°09' E 003°47'0 0.0
2014-Aug-19 23:29N 51°09' E 003°47'0 0.0
2014-Aug-19 22:23N 51°09' E 003°47'0 0.0
2014-Aug-19 21:29N 51°09' E 003°47'0 0.0
2014-Aug-19 20:29N 51°09' E 003°47'6 6.3
2014-Aug-19 19:34N 51°15' E 003°49'5 5.1
2014-Aug-19 18:33N 51°20' E 003°49'1111.1
2014-Aug-19 17:33N 51°26' E 003°34'1412.4
2014-Aug-19 16:24N 51°38' E 003°20'6511.1
2014-Aug-19 10:33N 52°20' E 002°00'8 8.1
2014-Aug-19 09:33N 52°25' E 001°50'8 7.5
2014-Aug-19 08:33N 52°32' E 001°52'7 7.5
2014-Aug-19 07:33N 52°40' E 001°50'8 8.5
2014-Aug-19 06:33N 52°47' E 001°43'9 9.3
2014-Aug-19 05:33N 52°54' E 001°33'10 9.6
2014-Aug-19 04:33N 52°59' E 001°19'  
2014-Aug-16 12:25N 53°02' E 001°08'7 8.3
2014-Aug-16 11:33N 52°59' E 001°19'7 7.4
2014-Aug-16 10:33N 52°55' E 001°30'8 7.5
2014-Aug-16 09:33N 52°50' E 001°38'9 9.2
2014-Aug-16 08:33N 52°43' E 001°48'1211.8
2014-Aug-16 07:33N 52°31' E 001°53'1312.9
2014-Aug-16 06:33N 52°18' E 001°51'1312.8
2014-Aug-16 05:33N 52°06' E 001°51'1212.5
2014-Aug-16 04:33N 51°53' E 001°49'1111.4
2014-Aug-16 03:33N 51°42' E 001°50'1110.8
2014-Aug-16 02:33N 51°31' E 001°47'1110.7
2014-Aug-16 01:33N 51°21' E 001°42'10 9.9
2014-Aug-16 00:34N 51°11' E 001°37'9 8.7
2014-Aug-15 23:33N 51°06' E 001°26'20 9.8
2014-Aug-15 21:33N 50°53' E 001°02'1010.2
2014-Aug-15 20:33N 50°48' E 000°49'1110.6
2014-Aug-15 19:33N 50°42' E 000°35'1010.2
2014-Aug-15 18:33N 50°41' E 000°19'21 9.6
2014-Aug-15 16:24N 50°47' W 000°12'3 3.7
2014-Aug-15 15:33N 50°50' W 000°14'1 1.2
2014-Aug-15 14:33N 50°50' W 000°12'0 0.0
2014-Aug-15 13:33N 50°50' W 000°12'0 0.0
2014-Aug-15 12:33N 50°50' W 000°12'0 0.0
2014-Aug-15 11:33N 50°50' W 000°12'0 0.0
2014-Aug-15 10:33N 50°50' W 000°12'0 0.0
2014-Aug-15 09:33N 50°50' W 000°12'0 0.0
2014-Aug-15 08:33N 50°50' W 000°12'0 0.0
2014-Aug-15 07:33N 50°50' W 000°12'0 0.0
2014-Aug-15 06:33N 50°50' W 000°12'0 0.0
2014-Aug-15 05:33N 50°50' W 000°12'0 0.0
2014-Aug-15 04:33N 50°50' W 000°12'0 0.0
2014-Aug-15 03:33N 50°50' W 000°12'0 0.0
2014-Aug-15 02:33N 50°50' W 000°12'0 0.0
2014-Aug-15 01:33N 50°50' W 000°12'0 0.0
2014-Aug-15 00:33N 50°50' W 000°12'0 0.0
2014-Aug-14 23:33N 50°50' W 000°12'0 0.0
2014-Aug-14 22:33N 50°50' W 000°12'0 0.0
2014-Aug-14 21:33N 50°50' W 000°12'0 0.0
2014-Aug-14 20:33N 50°50' W 000°12'0 0.0
2014-Aug-14 19:33N 50°50' W 000°12'0 0.0
2014-Aug-14 18:33N 50°50' W 000°12'0 0.0
2014-Aug-14 17:33N 50°50' W 000°12'0 0.0
2014-Aug-14 16:30N 50°50' W 000°12'0 0.0
2014-Aug-14 15:33N 50°50' W 000°12'0 0.0
2014-Aug-14 14:33N 50°50' W 000°12'0 0.0
2014-Aug-14 13:33N 50°50' W 000°12'0 0.0
2014-Aug-14 12:33N 50°50' W 000°12'0 0.0
2014-Aug-14 11:33N 50°50' W 000°12'0 0.0
2014-Aug-14 10:33N 50°50' W 000°12'0 0.0
2014-Aug-14 09:33N 50°50' W 000°12'0 0.0
2014-Aug-14 08:30N 50°50' W 000°12'0 0.0
2014-Aug-14 07:33N 50°50' W 000°12'0 0.0
2014-Aug-14 06:33N 50°50' W 000°12'0 0.0
2014-Aug-14 05:33N 50°50' W 000°12'0 0.0
2014-Aug-14 04:33N 50°50' W 000°12'0 0.0
2014-Aug-14 03:33N 50°50' W 000°12'0 0.0
2014-Aug-14 02:33N 50°50' W 000°12'0 0.0
2014-Aug-14 01:33N 50°50' W 000°12'0 0.0
2014-Aug-14 00:33N 50°50' W 000°12'0 0.0
2014-Aug-13 23:33N 50°50' W 000°12'0 0.0
2014-Aug-13 22:33N 50°50' W 000°12'0 0.0
2014-Aug-13 21:33N 50°50' W 000°12'0 0.0
2014-Aug-13 20:33N 50°50' W 000°12'0 0.0
2014-Aug-13 19:33N 50°50' W 000°12'0 0.0
2014-Aug-13 18:33N 50°50' W 000°12'0 0.0
2014-Aug-13 17:30N 50°50' W 000°12'0 0.0
2014-Aug-13 16:33N 50°50' W 000°12'0 0.0
2014-Aug-13 15:33N 50°50' W 000°12'0 0.0
2014-Aug-13 14:33N 50°50' W 000°12'0 0.0
2014-Aug-13 13:33N 50°50' W 000°12'0 0.0
2014-Aug-13 12:33N 50°50' W 000°12'0 0.0
2014-Aug-13 11:30N 50°50' W 000°12'0 0.0
2014-Aug-13 10:33N 50°50' W 000°12'0 0.0
2014-Aug-13 09:33N 50°50' W 000°12'0 0.0
2014-Aug-13 08:33N 50°50' W 000°12'0 0.0
2014-Aug-13 07:33N 50°50' W 000°12'0 0.0
2014-Aug-13 06:30N 50°50' W 000°12'0 0.0
2014-Aug-13 05:33N 50°50' W 000°12'0 0.0
2014-Aug-13 04:33N 50°50' W 000°12'0 0.0
2014-Aug-13 03:33N 50°50' W 000°12'  

Dump ship's entire track history